Time;durP1;ratioP1;P1;durP2;ratioP2;P2;SDS_P1;SDS_P2;PMS_P1;PMS_P2;Temp;Humidity;BMP_temperature;BMP_pressure;BME280_temperature;BME280_humidity;BME280_pressure;Samples;Min_cycle;Max_cycle;Signal;HPM_P1;HPM_P2
2023/01/06 00:01:37;;;;;;;7.37;1.87;;;11.80;99.90;;;;;;5054319;28;20236;-88
2023/01/06 00:04:04;;;;;;;4.80;2.20;;;11.80;99.90;;;;;;5053570;28;20205;-87
2023/01/06 00:06:33;;;;;;;4.17;1.93;;;11.80;99.90;;;;;;5054435;28;20249;-89
2023/01/06 00:09:02;;;;;;;5.90;2.00;;;11.80;99.90;;;;;;5057711;28;20205;-87
2023/01/06 00:11:37;;;;;;;3.27;1.50;;;11.90;99.90;;;;;;5057395;28;20226;-89
2023/01/06 00:14:04;;;;;;;5.07;1.40;;;11.80;99.90;;;;;;5057729;28;20216;-90
2023/01/06 00:16:36;;;;;;;4.93;1.80;;;11.80;99.90;;;;;;5057223;28;20626;-87
2023/01/06 00:19:03;;;;;;;7.23;1.60;;;11.80;99.90;;;;;;5056907;28;20247;-89
2023/01/06 00:21:37;;;;;;;4.43;1.33;;;11.80;99.90;;;;;;5057010;28;20239;-89
2023/01/06 00:24:05;;;;;;;4.23;1.43;;;11.70;99.90;;;;;;5057299;28;20650;-90
2023/01/06 00:26:35;;;;;;;4.37;1.60;;;11.70;99.90;;;;;;5056977;28;20201;-89
2023/01/06 00:29:02;;;;;;;5.50;1.70;;;11.70;99.90;;;;;;5056557;28;20201;-87
2023/01/06 00:31:31;;;;;;;5.93;1.40;;;11.70;99.90;;;;;;5057379;28;20210;-88
2023/01/06 00:34:01;;;;;;;3.40;1.40;;;11.70;99.90;;;;;;5056896;28;20208;-88
2023/01/06 00:36:34;;;;;;;5.17;1.17;;;11.60;99.90;;;;;;5056755;28;20633;-88
2023/01/06 00:39:07;;;;;;;4.93;1.70;;;11.60;99.90;;;;;;5057009;28;20192;-87
2023/01/06 00:44:27;;;;;;;3.50;1.43;;;11.60;99.90;;;;;;5057632;28;20189;-86
2023/01/06 00:47:10;;;;;;;3.33;1.37;;;11.70;99.90;;;;;;5056781;28;20197;-86
2023/01/06 00:49:42;;;;;;;6.13;1.70;;;11.80;99.90;;;;;;5056799;28;20193;-89
2023/01/06 00:58:55;;;;;;;4.20;1.23;;;11.80;99.90;;;;;;5057440;28;20190;-88
2023/01/06 01:01:27;;;;;;;6.30;1.30;;;11.80;99.90;;;;;;5056279;28;20664;-88
2023/01/06 01:04:00;;;;;;;3.33;1.33;;;11.90;99.90;;;;;;5056436;28;20220;-87
2023/01/06 01:06:28;;;;;;;5.10;1.57;;;11.90;99.90;;;;;;5056098;28;20661;-89
2023/01/06 01:08:59;;;;;;;3.90;1.10;;;11.90;99.90;;;;;;5056547;28;20215;-89
2023/01/06 01:28:18;;;;;;;2.00;1.10;;;11.80;99.90;;;;;;4974957;28;20299;-88
2023/01/06 01:37:35;;;;;;;1.83;1.10;;;11.80;99.90;;;;;;4980966;28;20207;-89
2023/01/06 01:40:09;;;;;;;2.37;0.90;;;11.80;99.90;;;;;;4975260;28;20226;-90
2023/01/06 01:46:00;;;;;;;2.80;1.20;;;11.80;99.90;;;;;;5076183;28;20181;-90
2023/01/06 01:49:28;;;;;;;5.93;1.40;;;11.90;99.90;;;;;;5075578;28;20266;-89
2023/01/06 01:51:57;;;;;;;2.63;1.00;;;11.80;99.90;;;;;;5067128;28;20231;-88
2023/01/06 02:32:54;;;;;;;2.83;1.10;;;11.60;99.90;;;;;;4833047;29;20679;-89
2023/01/06 02:38:53;;;;;;;4.03;1.37;;;11.50;99.90;;;;;;5073604;28;20598;-92
2023/01/06 02:41:29;;;;;;;3.33;1.30;;;11.50;99.90;;;;;;5075219;28;20759;-94
2023/01/06 02:44:04;;;;;;;2.93;1.20;;;11.50;99.90;;;;;;5075557;28;20212;-93
2023/01/06 02:47:03;;;;;;;3.30;1.10;;;11.60;99.90;;;;;;5076072;28;20211;-94
2023/01/06 02:49:45;;;;;;;4.27;1.80;;;11.40;99.90;;;;;;5074947;28;20220;-93
2023/01/06 02:52:21;;;;;;;3.40;1.30;;;11.40;99.90;;;;;;5075013;28;20234;-96
2023/01/06 02:54:56;;;;;;;4.03;1.47;;;11.50;99.90;;;;;;5076050;28;20222;-93
2023/01/06 02:57:32;;;;;;;4.37;1.40;;;11.40;99.90;;;;;;5075240;28;20203;-92
2023/01/06 03:00:07;;;;;;;2.37;1.47;;;11.40;99.90;;;;;;5075046;28;20250;-91
2023/01/06 03:02:55;;;;;;;2.70;1.33;;;11.50;99.90;;;;;;5074807;28;20228;-93
2023/01/06 03:05:32;;;;;;;4.93;1.33;;;11.40;99.90;;;;;;5075398;28;20278;-94
2023/01/06 03:08:08;;;;;;;3.83;1.03;;;11.50;99.90;;;;;;5075860;28;20208;-93
2023/01/06 03:10:41;;;;;;;3.93;1.30;;;11.50;99.90;;;;;;5075335;28;20222;-94
2023/01/06 03:13:15;;;;;;;1.67;1.10;;;11.60;99.90;;;;;;5077168;28;20206;-93
2023/01/06 03:15:44;;;;;;;3.63;0.87;;;11.50;99.90;;;;;;5076993;28;20222;-94
2023/01/06 03:18:12;;;;;;;1.53;0.90;;;11.40;99.90;;;;;;5077017;28;20230;-96
2023/01/06 03:20:59;;;;;;;1.40;1.00;;;11.40;99.90;;;;;;5075236;28;20225;-94
2023/01/06 03:23:38;;;;;;;1.23;1.13;;;11.40;99.90;;;;;;5075741;28;20232;-93
2023/01/06 03:26:14;;;;;;;0.93;0.90;;;11.40;99.90;;;;;;5075911;28;20223;-92
2023/01/06 03:28:41;;;;;;;3.03;0.90;;;11.40;99.90;;;;;;5076356;28;20271;-93
2023/01/06 03:31:16;;;;;;;2.33;0.70;;;11.30;99.90;;;;;;5079546;28;20226;-91
2023/01/06 03:33:58;;;;;;;3.00;1.30;;;11.30;99.90;;;;;;5078724;28;20230;-94
2023/01/06 03:36:35;;;;;;;5.10;2.03;;;11.40;99.90;;;;;;5077029;28;20208;-91
2023/01/06 03:39:08;;;;;;;2.60;1.10;;;11.40;99.90;;;;;;5077721;28;20219;-92
2023/01/06 03:44:35;;;;;;;1.37;0.70;;;11.40;99.90;;;;;;5081881;28;20202;-92
2023/01/06 03:47:24;;;;;;;1.23;1.00;;;11.30;99.90;;;;;;5078128;28;20210;-93
2023/01/06 03:49:58;;;;;;;0.90;0.87;;;11.30;99.90;;;;;;5077701;28;20195;-90
2023/01/06 03:52:45;;;;;;;2.60;1.00;;;11.30;99.90;;;;;;5078197;28;20214;-93
2023/01/06 03:55:18;;;;;;;1.37;0.83;;;11.30;99.90;;;;;;5078309;28;20570;-91
2023/01/06 03:57:56;;;;;;;3.57;1.10;;;11.30;99.90;;;;;;5077834;28;20223;-90
2023/01/06 04:00:30;;;;;;;1.87;1.00;;;11.30;99.90;;;;;;5077867;28;20230;-91
2023/01/06 04:03:03;;;;;;;3.30;1.27;;;11.20;99.90;;;;;;5077818;28;20599;-92
2023/01/06 04:05:39;;;;;;;1.97;1.07;;;11.30;99.90;;;;;;5077892;28;20249;-94
2023/01/06 04:08:18;;;;;;;1.97;0.90;;;11.20;99.90;;;;;;5078161;28;20209;-92
2023/01/06 04:10:48;;;;;;;4.93;0.97;;;11.30;99.90;;;;;;5077639;28;20255;-91
2023/01/06 04:13:27;;;;;;;2.20;1.00;;;11.30;99.90;;;;;;5077974;28;20214;-90
2023/01/06 04:16:01;;;;;;;2.50;0.87;;;11.20;99.90;;;;;;5077612;28;20218;-93
2023/01/06 04:18:31;;;;;;;2.10;0.90;;;11.20;99.90;;;;;;5077689;28;20232;-94
2023/01/06 04:21:06;;;;;;;1.40;0.80;;;11.30;99.90;;;;;;5077335;28;20257;-92
2023/01/06 04:23:41;;;;;;;2.73;1.00;;;11.30;99.90;;;;;;5077494;28;20230;-93
2023/01/06 04:26:09;;;;;;;2.67;0.90;;;11.20;99.90;;;;;;5077296;28;20302;-93
2023/01/06 04:28:43;;;;;;;1.33;0.80;;;11.30;99.90;;;;;;5077602;28;20634;-92
2023/01/06 04:31:11;;;;;;;2.00;0.87;;;11.20;99.90;;;;;;5077330;28;20254;-89
2023/01/06 04:33:41;;;;;;;3.07;0.70;;;11.20;99.90;;;;;;5076964;28;20719;-92
2023/01/06 04:36:14;;;;;;;1.80;0.90;;;11.20;99.90;;;;;;5077731;28;20289;-88
2023/01/06 04:38:45;;;;;;;0.90;0.90;;;11.30;99.90;;;;;;5077644;28;20572;-91
2023/01/06 04:41:14;;;;;;;2.37;0.90;;;11.30;99.90;;;;;;5077716;28;20231;-91
2023/01/06 04:43:42;;;;;;;0.87;0.80;;;11.30;99.90;;;;;;5077157;28;20204;-91
2023/01/06 04:46:21;;;;;;;3.23;1.00;;;11.30;99.90;;;;;;5077461;28;20233;-91
2023/01/06 04:48:51;;;;;;;1.40;0.70;;;11.30;99.90;;;;;;5077689;28;20242;-92
2023/01/06 04:51:18;;;;;;;2.77;0.97;;;11.30;99.90;;;;;;5077281;28;20250;-91
2023/01/06 04:53:55;;;;;;;1.83;0.80;;;11.30;99.90;;;;;;5078675;28;20222;-92
2023/01/06 04:56:28;;;;;;;3.30;0.87;;;11.30;99.90;;;;;;5079172;28;20205;-92
2023/01/06 04:58:58;;;;;;;1.93;1.30;;;11.30;99.90;;;;;;5081728;28;20199;-92
2023/01/06 05:01:29;;;;;;;1.87;0.90;;;11.20;99.90;;;;;;5083890;28;20222;-95
2023/01/06 05:03:56;;;;;;;1.20;1.10;;;11.30;99.90;;;;;;5084845;28;20273;-93
2023/01/06 05:06:24;;;;;;;2.83;1.30;;;11.20;99.90;;;;;;5084255;28;20223;-94
2023/01/06 05:09:01;;;;;;;3.83;1.17;;;11.20;99.90;;;;;;5085058;28;20208;-92
2023/01/06 05:11:29;;;;;;;1.87;0.93;;;11.20;99.90;;;;;;5085702;28;20235;-94
2023/01/06 05:13:56;;;;;;;3.00;1.00;;;11.30;99.90;;;;;;5085520;28;20226;-90
2023/01/06 05:16:29;;;;;;;2.90;0.90;;;11.20;99.90;;;;;;5085340;28;20215;-91
2023/01/06 05:18:58;;;;;;;2.43;1.17;;;11.20;99.90;;;;;;5080530;28;20233;-92
2023/01/06 05:21:36;;;;;;;1.40;0.90;;;11.30;99.90;;;;;;5077108;28;20283;-93
2023/01/06 05:24:14;;;;;;;1.27;1.00;;;11.10;99.90;;;;;;5077692;28;20204;-94
2023/01/06 05:26:48;;;;;;;1.63;1.20;;;11.20;99.90;;;;;;5074855;28;20268;-92
2023/01/06 05:29:19;;;;;;;3.03;1.30;;;11.30;99.90;;;;;;5076385;28;20206;-90
2023/01/06 05:31:51;;;;;;;2.37;1.00;;;11.20;99.90;;;;;;5076063;28;20649;-91
2023/01/06 05:34:22;;;;;;;2.37;1.10;;;11.30;99.90;;;;;;5076259;28;20305;-91
2023/01/06 05:36:50;;;;;;;1.00;0.93;;;11.30;99.90;;;;;;5076153;28;20221;-91
2023/01/06 05:39:38;;;;;;;2.20;1.00;;;11.30;99.90;;;;;;5076230;28;20228;-92
2023/01/06 05:42:09;;;;;;;1.77;1.03;;;11.40;99.90;;;;;;5075844;28;20242;-94
2023/01/06 05:44:39;;;;;;;1.70;1.40;;;11.30;99.90;;;;;;5076088;28;20203;-93
2023/01/06 05:47:09;;;;;;;1.43;0.93;;;11.30;99.90;;;;;;5076188;28;20226;-92
2023/01/06 05:49:37;;;;;;;1.40;1.30;;;11.30;99.90;;;;;;5076236;28;20211;-93
2023/01/06 05:52:10;;;;;;;1.37;1.10;;;11.30;99.90;;;;;;5076133;28;20301;-93
2023/01/06 05:54:54;;;;;;;1.20;1.10;;;11.30;99.90;;;;;;5076354;28;20218;-92
2023/01/06 05:57:24;;;;;;;0.90;0.80;;;11.40;99.90;;;;;;5075975;28;20296;-90
2023/01/06 05:59:57;;;;;;;2.63;0.90;;;11.40;99.90;;;;;;5075823;28;20202;-91
2023/01/06 06:02:35;;;;;;;1.70;0.90;;;11.40;99.90;;;;;;5073812;28;20452;-91
2023/01/06 06:05:03;;;;;;;2.03;0.80;;;11.30;99.90;;;;;;5068676;28;20224;-92
2023/01/06 06:07:54;;;;;;;2.00;0.80;;;11.30;99.90;;;;;;5078771;28;20187;-96
2023/01/06 06:10:26;;;;;;;1.20;0.80;;;11.40;99.90;;;;;;5068814;28;20733;-93
2023/01/06 06:13:00;;;;;;;3.53;1.03;;;11.40;99.90;;;;;;5081405;28;20213;-93
2023/01/06 06:15:30;;;;;;;2.43;1.03;;;11.40;99.90;;;;;;5080151;28;20219;-92
2023/01/06 06:17:57;;;;;;;1.53;0.90;;;11.40;99.90;;;;;;5062733;28;20302;-92
2023/01/06 06:20:26;;;;;;;0.70;0.70;;;11.50;99.90;;;;;;5075868;28;20745;-94
2023/01/06 06:22:58;;;;;;;2.20;0.90;;;11.50;99.90;;;;;;5075271;28;20582;-89
2023/01/06 06:25:33;;;;;;;0.93;0.90;;;11.50;99.90;;;;;;5075416;28;20620;-95
2023/01/06 06:28:02;;;;;;;1.50;0.80;;;11.50;99.90;;;;;;5077884;28;20227;-91
2023/01/06 06:30:52;;;;;;;1.93;0.70;;;11.70;99.90;;;;;;5076658;28;20327;-93
2023/01/06 06:33:20;;;;;;;1.13;1.03;;;11.60;99.90;;;;;;5066957;28;20627;-89
2023/01/06 06:35:57;;;;;;;2.20;0.97;;;11.50;99.90;;;;;;5062478;28;20269;-90
2023/01/06 06:38:39;;;;;;;1.57;0.70;;;11.50;99.90;;;;;;5075866;28;20610;-92
2023/01/06 06:41:11;;;;;;;0.80;0.80;;;11.40;99.90;;;;;;5075203;28;20705;-92
2023/01/06 06:43:44;;;;;;;0.80;0.70;;;11.50;99.90;;;;;;5061872;28;20596;-91
2023/01/06 06:46:21;;;;;;;3.13;0.90;;;11.50;99.90;;;;;;5074707;28;20232;-92
2023/01/06 06:49:04;;;;;;;1.67;0.83;;;11.40;99.90;;;;;;5074873;28;20208;-93
2023/01/06 06:51:37;;;;;;;0.90;0.90;;;11.40;99.90;;;;;;5074786;28;20326;-92
2023/01/06 06:54:07;;;;;;;2.27;0.90;;;11.40;99.90;;;;;;5074565;28;20725;-90
2023/01/06 06:56:39;;;;;;;0.90;0.90;;;11.40;99.90;;;;;;5062011;28;20306;-92
2023/01/06 07:01:49;;;;;;;1.00;1.00;;;11.40;99.90;;;;;;5065720;28;20227;-94
2023/01/06 07:04:30;;;;;;;1.10;1.10;;;11.40;99.90;;;;;;5056321;28;20360;-95
2023/01/06 07:07:00;;;;;;;1.13;1.13;;;11.30;99.90;;;;;;5076905;28;20207;-93
2023/01/06 07:09:31;;;;;;;1.20;1.20;;;11.30;99.90;;;;;;5075537;28;20195;-94
2023/01/06 07:12:01;;;;;;;1.50;1.40;;;11.30;99.90;;;;;;5089465;28;20270;-93
2023/01/06 07:14:28;;;;;;;1.70;1.30;;;11.20;99.90;;;;;;5076565;28;20194;-94
2023/01/06 07:17:02;;;;;;;1.70;1.60;;;11.20;99.90;;;;;;5077878;28;20245;-91
2023/01/06 07:19:47;;;;;;;1.63;1.50;;;11.20;99.90;;;;;;5076606;28;20627;-91
2023/01/06 07:22:17;;;;;;;2.33;1.43;;;11.20;99.90;;;;;;5061922;28;20228;-92
2023/01/06 07:25:09;;;;;;;1.67;1.67;;;11.20;99.90;;;;;;5069110;28;20297;-93
2023/01/06 07:27:58;;;;;;;1.80;1.70;;;11.10;99.90;;;;;;5068360;28;20270;-91
2023/01/06 07:30:28;;;;;;;1.97;1.70;;;11.20;99.90;;;;;;5054859;28;20226;-95
2023/01/06 07:33:01;;;;;;;2.20;2.10;;;11.10;99.90;;;;;;5069055;28;20303;-93
2023/01/06 07:35:32;;;;;;;2.20;2.10;;;11.00;99.90;;;;;;5057383;28;20213;-91
2023/01/06 07:38:04;;;;;;;2.93;2.73;;;11.10;99.90;;;;;;5074394;28;20451;-93
2023/01/06 07:40:37;;;;;;;2.50;2.30;;;11.20;99.90;;;;;;5075555;28;20239;-93
2023/01/06 07:43:12;;;;;;;2.50;2.30;;;11.20;99.90;;;;;;5069441;28;20285;-92
2023/01/06 07:45:47;;;;;;;2.83;2.63;;;11.20;99.90;;;;;;5058704;28;20260;-95
2023/01/06 07:48:18;;;;;;;2.80;2.60;;;11.20;99.90;;;;;;5073884;28;20205;-92
2023/01/06 07:50:51;;;;;;;2.23;2.10;;;11.10;99.90;;;;;;5074529;28;20242;-90
2023/01/06 07:53:21;;;;;;;3.80;2.57;;;11.20;99.90;;;;;;5060870;28;20212;-93
2023/01/06 07:55:55;;;;;;;2.17;2.00;;;11.20;99.90;;;;;;5074457;28;20211;-92
2023/01/06 07:58:36;;;;;;;2.07;1.87;;;11.20;99.90;;;;;;5062028;28;20717;-95
2023/01/06 08:01:07;;;;;;;3.87;1.60;;;11.20;99.90;;;;;;5072155;28;20320;-93
2023/01/06 08:03:41;;;;;;;2.93;1.37;;;11.20;99.90;;;;;;5069985;28;20237;-93
2023/01/06 08:06:09;;;;;;;1.40;1.27;;;11.30;99.90;;;;;;5063807;28;20712;-91
2023/01/06 08:08:40;;;;;;;2.17;1.40;;;11.30;99.90;;;;;;5067401;28;20288;-92
2023/01/06 08:11:12;;;;;;;1.87;1.17;;;11.40;99.90;;;;;;5065912;28;20234;-96
2023/01/06 08:13:44;;;;;;;1.33;0.90;;;11.40;99.90;;;;;;5074323;28;20272;-93
2023/01/06 08:16:12;;;;;;;2.63;1.30;;;11.40;99.90;;;;;;5074799;28;20236;-93
2023/01/06 08:18:41;;;;;;;1.40;0.90;;;11.50;99.90;;;;;;5073944;28;20302;-92
2023/01/06 08:21:10;;;;;;;2.23;1.17;;;11.40;99.90;;;;;;5073882;28;20298;-88
2023/01/06 08:23:38;;;;;;;1.30;1.20;;;11.50;99.90;;;;;;5074169;28;20594;-87
2023/01/06 08:29:15;;;;;;;0.90;0.90;;;11.50;99.90;;;;;;5073600;28;20195;-93
2023/01/06 08:31:59;;;;;;;1.90;1.00;;;11.50;99.90;;;;;;5077183;28;20226;-94
2023/01/06 08:34:26;;;;;;;2.30;1.00;;;11.50;99.90;;;;;;5076666;28;20332;-88
2023/01/06 08:36:58;;;;;;;2.93;1.30;;;11.50;99.90;;;;;;5071796;28;20211;-91
2023/01/06 08:39:25;;;;;;;1.13;1.00;;;11.60;99.90;;;;;;5076614;28;20685;-91
2023/01/06 08:41:53;;;;;;;1.30;1.20;;;11.50;99.90;;;;;;5074299;28;20555;-90
2023/01/06 08:44:25;;;;;;;1.97;1.07;;;11.50;99.90;;;;;;5064475;28;20235;-91
2023/01/06 08:46:57;;;;;;;2.83;1.13;;;11.50;99.90;;;;;;5076217;28;20212;-90
2023/01/06 08:49:28;;;;;;;4.70;1.30;;;11.50;99.90;;;;;;5066869;28;20211;-93
2023/01/06 08:51:56;;;;;;;1.20;1.10;;;11.50;99.90;;;;;;5075829;28;20263;-91
2023/01/06 08:54:31;;;;;;;2.47;0.87;;;11.60;99.90;;;;;;5068131;28;20234;-93
2023/01/06 08:56:58;;;;;;;2.20;1.13;;;11.60;99.90;;;;;;5076551;28;20230;-90
2023/01/06 08:59:28;;;;;;;1.47;1.20;;;11.70;99.90;;;;;;5073569;28;20571;-91
2023/01/06 09:01:56;;;;;;;1.53;1.00;;;11.70;99.90;;;;;;5077680;28;20227;-92
2023/01/06 09:04:25;;;;;;;2.03;1.20;;;11.70;99.90;;;;;;5074810;28;20522;-93
2023/01/06 09:06:52;;;;;;;1.63;1.20;;;11.90;99.90;;;;;;5074718;28;20297;-93
2023/01/06 09:09:25;;;;;;;1.80;0.97;;;11.80;99.90;;;;;;5076500;28;20204;-93
2023/01/06 09:11:52;;;;;;;1.20;1.00;;;11.80;99.90;;;;;;5066355;28;20236;-89
2023/01/06 09:14:47;;;;;;;3.40;1.40;;;11.80;99.90;;;;;;5065862;28;20211;-96
2023/01/06 09:17:22;;;;;;;2.03;1.03;;;11.90;99.90;;;;;;5075775;28;20625;-93
2023/01/06 09:20:00;;;;;;;1.43;1.20;;;11.90;99.90;;;;;;5084385;28;20211;-90
2023/01/06 09:22:27;;;;;;;1.27;0.80;;;11.90;99.90;;;;;;5077915;28;20242;-87
2023/01/06 09:25:00;;;;;;;1.80;0.90;;;11.80;99.90;;;;;;5064383;28;20208;-84
2023/01/06 09:27:27;;;;;;;0.97;0.97;;;12.00;99.90;;;;;;5071156;28;20295;-85
2023/01/06 09:29:55;;;;;;;1.70;1.53;;;11.90;99.90;;;;;;5068697;28;20598;-85
2023/01/06 09:32:22;;;;;;;1.73;1.27;;;12.00;99.90;;;;;;5066474;28;20719;-81
2023/01/06 09:34:55;;;;;;;1.95;1.63;;;12.00;99.90;;;;;;5074672;28;20436;-91
2023/01/06 09:37:30;;;;;;;5.30;1.60;;;12.20;99.90;;;;;;5079614;28;20675;-93
2023/01/06 09:39:56;;;;;;;2.83;2.63;;;12.20;99.90;;;;;;5066758;28;20564;-90
2023/01/06 09:42:57;;;;;;;2.80;2.60;;;12.10;99.90;;;;;;5078016;28;20325;-93
2023/01/06 09:45:36;;;;;;;2.70;2.60;;;11.90;99.90;;;;;;5079976;28;20233;-89
2023/01/06 09:48:10;;;;;;;2.70;2.50;;;11.90;99.90;;;;;;5067999;28;20206;-84
2023/01/06 09:50:45;;;;;;;3.37;3.10;;;12.00;99.90;;;;;;5079668;28;20234;-88
2023/01/06 09:53:22;;;;;;;3.30;3.10;;;11.90;99.90;;;;;;5080883;28;20203;-87
2023/01/06 09:55:56;;;;;;;3.10;2.90;;;11.80;99.90;;;;;;5083322;28;20200;-86
2023/01/06 09:58:31;;;;;;;2.97;2.70;;;11.70;99.90;;;;;;5084581;28;20202;-85
2023/01/06 10:01:04;;;;;;;3.10;2.90;;;11.70;99.90;;;;;;5073492;28;20705;-87
2023/01/06 10:03:33;;;;;;;2.60;2.50;;;11.70;99.90;;;;;;5075487;28;20237;-81
2023/01/06 10:06:17;;;;;;;1.80;1.70;;;11.60;99.90;;;;;;5069664;28;20283;-83
2023/01/06 10:08:54;;;;;;;2.73;2.53;;;11.50;99.90;;;;;;5070947;28;20234;-80
2023/01/06 10:11:29;;;;;;;2.90;2.67;;;11.40;99.90;;;;;;5062714;28;20352;-83
2023/01/06 10:14:10;;;;;;;2.70;2.50;;;11.30;99.90;;;;;;5075691;28;20230;-85
2023/01/06 10:16:58;;;;;;;2.90;2.43;;;11.30;99.90;;;;;;5076209;28;20207;-84
2023/01/06 10:19:34;;;;;;;3.10;3.00;;;11.30;99.90;;;;;;5079863;28;20247;-83
2023/01/06 10:22:08;;;;;;;3.37;3.07;;;11.50;99.90;;;;;;5076358;28;20737;-84
2023/01/06 10:24:50;;;;;;;2.93;2.73;;;11.40;99.90;;;;;;5075736;28;20575;-85
2023/01/06 10:27:27;;;;;;;3.73;3.50;;;11.40;99.90;;;;;;5057890;28;20211;-92
2023/01/06 10:30:00;;;;;;;3.57;3.37;;;11.40;99.90;;;;;;5075338;28;20294;-84
2023/01/06 10:32:33;;;;;;;11.77;3.33;;;11.40;99.90;;;;;;5076246;28;20214;-85
2023/01/06 10:35:01;;;;;;;2.83;2.63;;;11.50;99.90;;;;;;5075959;28;20213;-86
2023/01/06 10:37:39;;;;;;;2.30;2.10;;;11.50;99.90;;;;;;5074934;28;20283;-84
2023/01/06 10:40:18;;;;;;;1.60;1.50;;;11.50;99.90;;;;;;5075559;28;20228;-85
2023/01/06 10:42:59;;;;;;;1.20;1.07;;;11.60;99.90;;;;;;5058807;28;20325;-86
2023/01/06 10:45:29;;;;;;;2.50;1.40;;;11.50;99.90;;;;;;5080942;28;20199;-85
2023/01/06 10:48:07;;;;;;;2.37;1.23;;;11.30;99.90;;;;;;5077416;28;20274;-81
2023/01/06 10:50:35;;;;;;;1.10;1.10;;;11.30;99.90;;;;;;5073532;28;20257;-86
2023/01/06 10:53:04;;;;;;;1.07;0.97;;;11.30;99.90;;;;;;5058308;28;20202;-84
2023/01/06 10:55:39;;;;;;;1.30;1.20;;;11.30;99.90;;;;;;5076330;28;20230;-86
2023/01/06 10:58:22;;;;;;;1.67;1.40;;;11.30;99.90;;;;;;5075111;28;20195;-86
2023/01/06 11:01:01;;;;;;;1.70;1.30;;;11.40;99.90;;;;;;5071718;28;20252;-85
2023/01/06 11:03:32;;;;;;;1.70;1.40;;;11.40;99.90;;;;;;5070281;28;20251;-90
2023/01/06 11:06:07;;;;;;;4.10;3.63;;;11.30;99.90;;;;;;5074259;28;20211;-85
2023/01/06 11:08:36;;;;;;;3.13;2.27;;;11.40;99.90;;;;;;5069526;28;20283;-87
2023/01/06 11:11:11;;;;;;;2.00;1.90;;;11.40;99.90;;;;;;5074095;28;20219;-84
2023/01/06 11:13:41;;;;;;;2.10;2.00;;;11.50;99.90;;;;;;5073293;28;20244;-85
2023/01/06 11:16:19;;;;;;;3.17;2.20;;;11.50;99.90;;;;;;5072640;28;20201;-83
2023/01/06 11:19:00;;;;;;;2.70;2.50;;;11.60;99.90;;;;;;5081134;28;20637;-92
2023/01/06 11:24:16;;;;;;;2.50;2.30;;;11.70;99.90;;;;;;5051305;28;20239;-86
2023/01/06 11:26:45;;;;;;;3.63;3.33;;;11.80;99.90;;;;;;5051822;28;20258;-88
2023/01/06 11:29:19;;;;;;;3.93;3.63;;;11.90;99.90;;;;;;5061207;28;20197;-87
2023/01/06 11:31:48;;;;;;;4.97;4.57;;;11.80;99.90;;;;;;5054226;28;20565;-87
2023/01/06 11:34:22;;;;;;;4.70;4.33;;;11.90;99.90;;;;;;5051889;28;20213;-87
2023/01/06 11:36:50;;;;;;;4.40;3.57;;;11.90;99.90;;;;;;5052705;28;20201;-87
2023/01/06 11:39:25;;;;;;;4.00;3.53;;;11.80;99.90;;;;;;5052421;28;20228;-87
2023/01/06 11:41:53;;;;;;;4.00;3.70;;;11.70;99.90;;;;;;5051823;28;20645;-87
2023/01/06 11:44:29;;;;;;;4.20;3.70;;;11.70;99.90;;;;;;5051855;28;20228;-87
2023/01/06 11:46:59;;;;;;;3.93;3.73;;;11.60;99.90;;;;;;5052137;28;20208;-87
2023/01/06 11:49:31;;;;;;;5.13;4.83;;;11.70;99.90;;;;;;5052350;28;20204;-87
2023/01/06 11:52:03;;;;;;;6.32;5.82;;;11.60;99.90;;;;;;5048736;28;20461;-87
2023/01/06 11:54:36;;;;;;;7.80;6.27;;;11.70;99.90;;;;;;5050685;28;20285;-86
2023/01/06 11:57:17;;;;;;;6.37;5.87;;;11.70;99.90;;;;;;5047978;28;20223;-89
2023/01/06 11:59:54;;;;;;;6.00;5.50;;;11.70;99.90;;;;;;5040407;28;20213;-85
2023/01/06 12:02:27;;;;;;;5.57;5.17;;;11.70;99.90;;;;;;5051985;28;20211;-86
2023/01/06 12:04:56;;;;;;;4.50;4.17;;;11.80;99.90;;;;;;5057985;28;20308;-86
2023/01/06 12:07:31;;;;;;;4.47;4.07;;;11.90;99.90;;;;;;5055162;28;20212;-86
2023/01/06 12:10:04;;;;;;;3.90;3.70;;;11.90;99.90;;;;;;5055114;28;21885;-86
2023/01/06 12:12:31;;;;;;;4.40;4.00;;;11.90;99.90;;;;;;5055293;28;20234;-86
2023/01/06 12:14:58;;;;;;;4.73;4.20;;;11.70;99.90;;;;;;5055264;28;20208;-85
2023/01/06 12:17:38;;;;;;;4.30;4.00;;;11.80;99.90;;;;;;5055362;28;20213;-85
2023/01/06 12:20:15;;;;;;;4.57;4.27;;;11.80;99.90;;;;;;5055155;28;20204;-85
2023/01/06 12:22:45;;;;;;;4.07;3.77;;;11.80;99.90;;;;;;5054928;28;20216;-85
2023/01/06 12:25:17;;;;;;;4.40;4.10;;;11.80;99.90;;;;;;5055033;28;20225;-85
2023/01/06 12:27:48;;;;;;;4.60;3.87;;;11.80;99.90;;;;;;5041816;28;20206;-85
2023/01/06 12:30:19;;;;;;;4.50;4.10;;;11.80;99.90;;;;;;5055531;28;20208;-86
2023/01/06 12:32:48;;;;;;;5.00;4.50;;;11.90;99.90;;;;;;5055128;28;20220;-85
2023/01/06 12:35:21;;;;;;;4.77;4.37;;;11.80;99.90;;;;;;5055114;28;20735;-86
2023/01/06 12:37:51;;;;;;;5.23;4.80;;;11.70;99.90;;;;;;5054482;28;20209;-85
2023/01/06 12:40:26;;;;;;;5.37;4.97;;;11.80;99.90;;;;;;5054676;28;20619;-84
2023/01/06 12:42:59;;;;;;;5.43;4.87;;;11.80;99.90;;;;;;5054268;28;20735;-85
2023/01/06 12:45:36;;;;;;;5.13;4.63;;;11.80;99.90;;;;;;5054318;28;20229;-84
2023/01/06 12:48:10;;;;;;;5.33;4.87;;;11.80;99.90;;;;;;5054053;28;20206;-85
2023/01/06 12:50:42;;;;;;;5.43;5.03;;;11.90;99.90;;;;;;5045711;28;20434;-86
2023/01/06 12:53:13;;;;;;;4.27;3.93;;;11.90;99.90;;;;;;5056644;28;20213;-85
2023/01/06 12:55:44;;;;;;;4.60;4.20;;;11.80;99.90;;;;;;5055719;28;20216;-85
2023/01/06 12:58:20;;;;;;;5.00;4.53;;;11.90;99.90;;;;;;5052741;28;20266;-86
2023/01/06 13:00:52;;;;;;;5.63;5.17;;;12.10;99.90;;;;;;5051653;28;20201;-85
2023/01/06 13:03:40;;;;;;;8.40;4.60;;;12.00;99.90;;;;;;5051298;28;20202;-86
2023/01/06 13:06:28;;;;;;;5.67;5.10;;;12.00;99.90;;;;;;5056126;28;20204;-85
2023/01/06 13:09:09;;;;;;;5.17;4.60;;;12.10;99.90;;;;;;5056219;28;20203;-85
2023/01/06 13:12:01;;;;;;;4.93;4.50;;;12.20;99.90;;;;;;5057666;28;20268;-85
2023/01/06 13:14:38;;;;;;;5.10;4.70;;;12.30;99.90;;;;;;5059117;28;20210;-85
2023/01/06 13:17:11;;;;;;;6.40;5.90;;;12.30;99.90;;;;;;5053911;28;20610;-85
2023/01/06 13:19:44;;;;;;;6.63;5.97;;;12.50;99.90;;;;;;5053784;28;20206;-86
2023/01/06 13:22:18;;;;;;;6.50;5.93;;;12.40;99.90;;;;;;5052874;28;20556;-85
2023/01/06 13:25:03;;;;;;;6.80;6.20;;;12.40;99.90;;;;;;5051104;28;20230;-86
2023/01/06 13:27:45;;;;;;;6.07;5.43;;;12.40;99.90;;;;;;5054057;28;20190;-84
2023/01/06 13:30:43;;;;;;;5.77;5.37;;;12.50;99.90;;;;;;5051392;28;20206;-86
2023/01/06 13:33:38;;;;;;;5.67;5.17;;;12.60;99.90;;;;;;5059748;28;20205;-87
2023/01/06 13:36:30;;;;;;;5.80;5.30;;;12.60;99.90;;;;;;5048593;28;20221;-82
2023/01/06 13:39:00;;;;;;;5.00;4.60;;;12.50;99.90;;;;;;5050453;28;20209;-85
2023/01/06 13:41:32;;;;;;;4.73;4.43;;;12.40;99.90;;;;;;5047574;28;20210;-85
2023/01/06 13:44:00;;;;;;;5.07;4.57;;;12.40;99.90;;;;;;5050682;28;20218;-84
2023/01/06 13:46:30;;;;;;;4.77;4.47;;;12.40;99.90;;;;;;5058884;28;20195;-88
2023/01/06 13:49:01;;;;;;;4.30;4.00;;;12.50;99.90;;;;;;5041051;28;20203;-85
2023/01/06 13:51:31;;;;;;;3.27;2.97;;;12.50;99.90;;;;;;5053094;28;20563;-84
2023/01/06 13:54:02;;;;;;;3.63;3.33;;;12.50;99.90;;;;;;5053779;28;20665;-88
2023/01/06 13:56:31;;;;;;;3.30;3.10;;;12.40;99.90;;;;;;5058973;28;20218;-88
2023/01/06 13:59:27;;;;;;;3.53;3.23;;;12.40;99.90;;;;;;5036107;28;20221;-89
2023/01/06 14:01:58;;;;;;;3.37;3.03;;;12.40;99.90;;;;;;5053133;28;20206;-87
2023/01/06 14:04:47;;;;;;;5.70;3.80;;;12.40;99.90;;;;;;5054250;28;20768;-88
2023/01/06 14:07:15;;;;;;;4.10;2.90;;;12.50;99.90;;;;;;5054772;28;20514;-90
2023/01/06 14:09:50;;;;;;;3.40;3.10;;;12.40;99.90;;;;;;5054355;28;20236;-88
2023/01/06 14:12:20;;;;;;;3.20;2.90;;;12.30;99.90;;;;;;5054568;28;20202;-88
2023/01/06 14:14:56;;;;;;;2.73;2.53;;;12.40;99.90;;;;;;5053640;28;20203;-88
2023/01/06 14:17:30;;;;;;;2.73;2.33;;;12.50;99.90;;;;;;5053902;28;20277;-89
2023/01/06 14:19:57;;;;;;;2.67;2.47;;;12.50;99.90;;;;;;5053923;28;20285;-88
2023/01/06 14:22:28;;;;;;;2.50;2.40;;;12.60;99.90;;;;;;5053652;28;20741;-89
2023/01/06 14:24:59;;;;;;;3.03;2.73;;;12.60;99.90;;;;;;5053257;28;20240;-89
2023/01/06 14:28:04;;;;;;;3.33;2.20;;;12.60;99.90;;;;;;5054069;28;20662;-89
2023/01/06 14:30:33;;;;;;;2.80;2.10;;;12.50;99.90;;;;;;5054277;28;20214;-89
2023/01/06 14:33:21;;;;;;;6.53;2.20;;;12.50;99.90;;;;;;5054037;28;20271;-88
2023/01/06 14:35:50;;;;;;;2.83;2.13;;;12.50;99.90;;;;;;5054313;28;20209;-89
2023/01/06 14:38:26;;;;;;;2.30;2.10;;;12.50;99.90;;;;;;5054402;28;20206;-89
2023/01/06 14:40:58;;;;;;;1.80;1.70;;;12.40;99.90;;;;;;5041094;28;20213;-89
2023/01/06 14:43:34;;;;;;;3.73;2.20;;;12.50;99.90;;;;;;5054127;28;20205;-89
2023/01/06 14:46:09;;;;;;;2.43;1.80;;;12.40;99.90;;;;;;5053813;28;20237;-90
2023/01/06 14:48:42;;;;;;;3.40;1.80;;;12.50;99.90;;;;;;5054167;28;20216;-89
2023/01/06 14:51:16;;;;;;;2.22;2.10;;;12.50;99.90;;;;;;5052333;28;20452;-89
2023/01/06 14:53:49;;;;;;;2.10;1.80;;;12.50;99.90;;;;;;5048866;28;20214;-89